KTXK/TXK METAR and TAF weather

Enter ICAO airport designator
Station Type Date Time Source
KTXK METAR 2019/04/18 22:05 UTC NOAA

KTXK 182205Z 32011KT 10SM FEW016 BKN030 OVC060 15/13 A2971 RMK AO2 T01500133


Station Type Date Time Source
KTXK Decoded METAR 2019/04/18 22:05 UTC NOAA

TEXARKANA RGNL WEBB FIELD, AR, United States (KTXK) 33-27N 093-59W 111M
Apr 18, 2019 - 06:05 PM EDT / 2019.04.18 2205 UTC
Wind: from the NW (320 degrees) at 13 MPH (11 KT):0
Visibility: 10 mile(s):0
Sky conditions: overcast
Temperature: 59.0 F (15.0 C)
Dew Point: 55.9 F (13.3 C)
Relative Humidity: 89%
Pressure (altimeter): 29.71 in. Hg (1006 hPa)
ob: KTXK 182205Z 32011KT 10SM FEW016 BKN030 OVC060 15/13 A2971 RMK AO2 T01500133
cycle: 22

Station Type Date Time Source
KTXK TAF 2019/04/18 22:40 UTC NOAA

TAF
AMD KTXK 182137Z 1822/1918 25015G25KT P6SM SCT010 OVC020
TEMPO 1822/1823 5SM -SHRA BR OVC007
FM190300 32008KT P6SM SCT250
FM190700 28007KT P6SM FEW250

Example: see airport list